Airfield :
LOGIN :

Register | Disclaimer

   EN    FR    IT 

 










Legend :    VFR   Marginal VFR   IFR   Intensive IFR   Very Intensive IFR
Visi :
Ceiling :
>= 8 km
>= 3000ft
5 to 8 km
1000 to 3000 ft
1500m to 5 km
500 to 1000 ft
800 to 1500m
200 to 500 ft
< 800m
< 200 ft
Symbols :   Thunderstorms  Fog  Heavy snow  Heavy precipitations  Wind > 20 kt
SIGMETs :     Misc.  Thunderstorms  Icing  Turbulence  Mountain Waves  Volcanic Ashes






- Airport Elevation : 600 ft
- IATA code : VIE


LOWW - Vienna Schwechat

CURRENT METAR :
  • 181720Z 15010KT CAVOK 28/18 Q1014 NOSIG

EXPIRED METARs :
  • 181650Z 15010KT CAVOK 28/17 Q1014 NOSIG
  • 181620Z 15011KT CAVOK 29/17 Q1015 NOSIG
  • 181550Z 15010KT CAVOK 29/18 Q1015 NOSIG
  • 181520Z 15012KT CAVOK 29/17 Q1015 NOSIG
  • 181450Z 15010KT CAVOK 29/17 Q1015 NOSIG
  • 181420Z 14009KT 120V180 CAVOK 29/18 Q1016 NOSIG
  • 181350Z 14009KT 110V170 CAVOK 29/16 Q1016 NOSIG
  • 181320Z 14010KT 110V170 CAVOK 29/17 Q1016 NOSIG
  • 181250Z 15011KT 120V180 CAVOK 28/17 Q1016 NOSIG

TAF TAF LOWW
Valid from the 18 at 18:00 until the 20 at 00:00 UTC


181715Z 1818/1924 15010KT CAVOK TX32/1914Z TN19/1904Z
BECMG 1900/1902 15005KT
PROB30
TEMPO 1917/1921 FEW040CB
BECMG 1919/1921 34012KT



MET'MAP, your aeronautical weather chart ! - Copyright ORBIFLY December 2007 - Disclaimer

ORBIFLY MET'MAP TEAM :

Programming & Development : Alexandra Zaïnal
Original concept : Baudouin d'Aumeries
Technical & hardware support : Manuel Goepfert
Assistance : Marc-Olivier Méhu




SOURCES & CREDITS :

   NOAA